sensor_id;sensor_type;location;lat;lon;timestamp;pressure;altitude;pressure_sealevel;temperature;humidity
56582;BME280;42463;52.214;21.238;2023-10-13T00:00:18;100377.37;;;12.34;65.24
56582;BME280;42463;52.214;21.238;2023-10-13T00:02:54;100372.57;;;12.29;65.53
56582;BME280;42463;52.214;21.238;2023-10-13T00:05:00;100374.20;;;12.30;65.86
56582;BME280;42463;52.214;21.238;2023-10-13T00:07:06;100374.38;;;12.33;65.88
56582;BME280;42463;52.214;21.238;2023-10-13T00:09:13;100376.33;;;12.33;65.64
56582;BME280;42463;52.214;21.238;2023-10-13T00:11:20;100379.54;;;12.32;65.65
56582;BME280;42463;52.214;21.238;2023-10-13T00:13:26;100386.11;;;12.27;65.63
56582;BME280;42463;52.214;21.238;2023-10-13T00:15:32;100390.11;;;12.21;65.89
56582;BME280;42463;52.214;21.238;2023-10-13T00:17:43;100388.12;;;12.14;65.95
56582;BME280;42463;52.214;21.238;2023-10-13T00:19:48;100385.08;;;12.14;66.15
56582;BME280;42463;52.214;21.238;2023-10-13T00:21:56;100383.02;;;12.14;65.99
56582;BME280;42463;52.214;21.238;2023-10-13T00:24:14;100387.25;;;12.16;65.86
56582;BME280;42463;52.214;21.238;2023-10-13T00:26:21;100389.33;;;12.19;65.74
56582;BME280;42463;52.214;21.238;2023-10-13T00:28:32;100385.81;;;12.20;65.54
56582;BME280;42463;52.214;21.238;2023-10-13T00:30:48;100390.27;;;12.21;65.37
56582;BME280;42463;52.214;21.238;2023-10-13T00:32:58;100386.52;;;12.21;65.53
56582;BME280;42463;52.214;21.238;2023-10-13T00:35:05;100391.58;;;12.22;65.41
56582;BME280;42463;52.214;21.238;2023-10-13T00:37:11;100391.48;;;12.23;65.14
56582;BME280;42463;52.214;21.238;2023-10-13T00:39:23;100391.86;;;12.24;65.12
56582;BME280;42463;52.214;21.238;2023-10-13T00:41:29;100395.73;;;12.26;65.06
56582;BME280;42463;52.214;21.238;2023-10-13T00:43:55;100398.62;;;12.27;64.84
56582;BME280;42463;52.214;21.238;2023-10-13T00:46:11;100400.25;;;12.27;64.66
56582;BME280;42463;52.214;21.238;2023-10-13T00:48:18;100402.64;;;12.27;64.61
56582;BME280;42463;52.214;21.238;2023-10-13T00:50:24;100404.21;;;12.26;64.50
56582;BME280;42463;52.214;21.238;2023-10-13T00:52:30;100408.08;;;12.25;64.47
56582;BME280;42463;52.214;21.238;2023-10-13T00:54:37;100410.69;;;12.25;64.35
56582;BME280;42463;52.214;21.238;2023-10-13T00:56:44;100409.70;;;12.24;64.36
56582;BME280;42463;52.214;21.238;2023-10-13T00:58:51;100413.48;;;12.20;64.16
56582;BME280;42463;52.214;21.238;2023-10-13T01:03:38;100414.39;;;12.16;64.39
56582;BME280;42463;52.214;21.238;2023-10-13T01:05:44;100409.02;;;12.15;64.45
56582;BME280;42463;52.214;21.238;2023-10-13T01:07:50;100400.19;;;12.11;64.42
56582;BME280;42463;52.214;21.238;2023-10-13T01:09:57;100404.86;;;12.12;64.18
56582;BME280;42463;52.214;21.238;2023-10-13T01:12:03;100397.89;;;12.10;64.31
56582;BME280;42463;52.214;21.238;2023-10-13T01:14:09;100398.55;;;12.09;64.28
56582;BME280;42463;52.214;21.238;2023-10-13T01:16:16;100399.84;;;12.09;63.96
56582;BME280;42463;52.214;21.238;2023-10-13T01:18:24;100408.38;;;12.07;63.44
56582;BME280;42463;52.214;21.238;2023-10-13T01:20:32;100415.46;;;12.02;63.41
56582;BME280;42463;52.214;21.238;2023-10-13T01:22:46;100420.44;;;11.97;63.77
56582;BME280;42463;52.214;21.238;2023-10-13T01:25:00;100420.71;;;11.95;63.75
56582;BME280;42463;52.214;21.238;2023-10-13T01:27:17;100423.86;;;11.95;63.71
56582;BME280;42463;52.214;21.238;2023-10-13T01:29:24;100426.63;;;11.95;63.66
56582;BME280;42463;52.214;21.238;2023-10-13T01:31:33;100427.23;;;11.93;63.58
56582;BME280;42463;52.214;21.238;2023-10-13T01:33:42;100433.09;;;11.93;63.59
56582;BME280;42463;52.214;21.238;2023-10-13T01:35:47;100431.50;;;11.91;63.34
56582;BME280;42463;52.214;21.238;2023-10-13T01:37:53;100431.16;;;11.89;63.41
56582;BME280;42463;52.214;21.238;2023-10-13T01:39:59;100428.70;;;11.87;63.20
56582;BME280;42463;52.214;21.238;2023-10-13T01:42:05;100434.20;;;11.87;63.13
56582;BME280;42463;52.214;21.238;2023-10-13T01:44:10;100433.77;;;11.87;63.16
56582;BME280;42463;52.214;21.238;2023-10-13T01:46:17;100429.23;;;11.86;63.02
56582;BME280;42463;52.214;21.238;2023-10-13T01:48:26;100426.20;;;11.86;62.91
56582;BME280;42463;52.214;21.238;2023-10-13T01:50:35;100423.89;;;11.83;62.70
56582;BME280;42463;52.214;21.238;2023-10-13T01:52:41;100424.36;;;11.80;62.47
56582;BME280;42463;52.214;21.238;2023-10-13T01:54:48;100423.10;;;11.77;62.29
56582;BME280;42463;52.214;21.238;2023-10-13T01:56:54;100422.13;;;11.74;62.43
56582;BME280;42463;52.214;21.238;2023-10-13T01:59:00;100420.75;;;11.72;62.37
56582;BME280;42463;52.214;21.238;2023-10-13T02:01:05;100413.83;;;11.69;62.24
56582;BME280;42463;52.214;21.238;2023-10-13T02:03:12;100416.00;;;11.68;62.19
56582;BME280;42463;52.214;21.238;2023-10-13T02:05:21;100419.02;;;11.66;61.96
56582;BME280;42463;52.214;21.238;2023-10-13T02:07:36;100419.39;;;11.63;61.95
56582;BME280;42463;52.214;21.238;2023-10-13T02:09:43;100419.90;;;11.59;61.85
56582;BME280;42463;52.214;21.238;2023-10-13T02:11:49;100416.84;;;11.56;61.81
56582;BME280;42463;52.214;21.238;2023-10-13T02:13:58;100412.68;;;11.52;61.65
56582;BME280;42463;52.214;21.238;2023-10-13T02:16:05;100409.89;;;11.50;61.62
56582;BME280;42463;52.214;21.238;2023-10-13T02:18:13;100413.40;;;11.47;61.57
56582;BME280;42463;52.214;21.238;2023-10-13T02:20:25;100409.35;;;11.44;61.39
56582;BME280;42463;52.214;21.238;2023-10-13T02:22:35;100411.27;;;11.42;61.29
56582;BME280;42463;52.214;21.238;2023-10-13T02:24:42;100411.14;;;11.40;61.40
56582;BME280;42463;52.214;21.238;2023-10-13T02:26:50;100406.95;;;11.39;61.24
56582;BME280;42463;52.214;21.238;2023-10-13T02:28:57;100415.30;;;11.37;61.17
56582;BME280;42463;52.214;21.238;2023-10-13T02:31:04;100423.71;;;11.35;61.17
56582;BME280;42463;52.214;21.238;2023-10-13T02:33:14;100425.27;;;11.33;61.07
56582;BME280;42463;52.214;21.238;2023-10-13T02:35:25;100431.00;;;11.31;61.18
56582;BME280;42463;52.214;21.238;2023-10-13T02:37:35;100429.96;;;11.30;61.02
56582;BME280;42463;52.214;21.238;2023-10-13T02:39:41;100431.46;;;11.28;60.98
56582;BME280;42463;52.214;21.238;2023-10-13T02:41:46;100428.45;;;11.25;60.68
56582;BME280;42463;52.214;21.238;2023-10-13T02:43:54;100428.82;;;11.23;60.83
56582;BME280;42463;52.214;21.238;2023-10-13T02:46:01;100425.91;;;11.19;60.64
56582;BME280;42463;52.214;21.238;2023-10-13T02:48:07;100418.88;;;11.16;60.64
56582;BME280;42463;52.214;21.238;2023-10-13T02:50:17;100419.45;;;11.13;60.52
56582;BME280;42463;52.214;21.238;2023-10-13T02:52:28;100420.83;;;11.11;60.55
56582;BME280;42463;52.214;21.238;2023-10-13T02:54:41;100428.95;;;11.08;60.63
56582;BME280;42463;52.214;21.238;2023-10-13T02:56:51;100426.66;;;11.06;60.62
56582;BME280;42463;52.214;21.238;2023-10-13T02:59:02;100430.16;;;11.03;60.61
56582;BME280;42463;52.214;21.238;2023-10-13T03:01:10;100428.19;;;11.01;60.51
56582;BME280;42463;52.214;21.238;2023-10-13T03:03:22;100427.94;;;10.99;60.66
56582;BME280;42463;52.214;21.238;2023-10-13T03:05:28;100419.73;;;10.93;60.84
56582;BME280;42463;52.214;21.238;2023-10-13T03:07:36;100426.86;;;10.95;60.71
56582;BME280;42463;52.214;21.238;2023-10-13T03:09:42;100424.88;;;10.91;60.68
56582;BME280;42463;52.214;21.238;2023-10-13T03:11:55;100421.82;;;10.88;60.77
56582;BME280;42463;52.214;21.238;2023-10-13T03:14:01;100415.83;;;10.87;60.91
56582;BME280;42463;52.214;21.238;2023-10-13T03:16:15;100416.73;;;10.86;60.72
56582;BME280;42463;52.214;21.238;2023-10-13T03:18:23;100412.10;;;10.83;60.73
56582;BME280;42463;52.214;21.238;2023-10-13T03:20:30;100408.54;;;10.79;60.68
56582;BME280;42463;52.214;21.238;2023-10-13T03:22:37;100403.58;;;10.77;60.67
56582;BME280;42463;52.214;21.238;2023-10-13T03:24:43;100400.77;;;10.74;60.84
56582;BME280;42463;52.214;21.238;2023-10-13T03:26:51;100401.02;;;10.72;60.80
56582;BME280;42463;52.214;21.238;2023-10-13T03:28:57;100406.65;;;10.70;60.90
56582;BME280;42463;52.214;21.238;2023-10-13T03:31:03;100418.98;;;10.68;60.74
56582;BME280;42463;52.214;21.238;2023-10-13T03:33:12;100416.95;;;10.64;60.69
56582;BME280;42463;52.214;21.238;2023-10-13T03:35:18;100410.69;;;10.61;60.82
56582;BME280;42463;52.214;21.238;2023-10-13T03:37:28;100408.44;;;10.61;60.96
56582;BME280;42463;52.214;21.238;2023-10-13T03:39:42;100409.30;;;10.60;60.86
56582;BME280;42463;52.214;21.238;2023-10-13T03:41:49;100409.64;;;10.56;60.73
56582;BME280;42463;52.214;21.238;2023-10-13T03:43:58;100409.88;;;10.48;60.89
56582;BME280;42463;52.214;21.238;2023-10-13T03:46:17;100412.05;;;10.43;61.16
56582;BME280;42463;52.214;21.238;2023-10-13T03:48:26;100420.14;;;10.40;61.22
56582;BME280;42463;52.214;21.238;2023-10-13T03:50:36;100418.09;;;10.38;61.30
56582;BME280;42463;52.214;21.238;2023-10-13T03:52:42;100415.70;;;10.39;61.41
56582;BME280;42463;52.214;21.238;2023-10-13T03:54:49;100414.78;;;10.39;61.26
56582;BME280;42463;52.214;21.238;2023-10-13T03:56:55;100417.02;;;10.39;61.36
56582;BME280;42463;52.214;21.238;2023-10-13T03:59:02;100418.51;;;10.40;61.21
56582;BME280;42463;52.214;21.238;2023-10-13T04:01:10;100417.07;;;10.39;61.28
56582;BME280;42463;52.214;21.238;2023-10-13T04:03:19;100422.73;;;10.28;60.93
56582;BME280;42463;52.214;21.238;2023-10-13T04:05:37;100420.89;;;10.13;61.03
56582;BME280;42463;52.214;21.238;2023-10-13T04:07:50;100421.36;;;10.04;61.63
56582;BME280;42463;52.214;21.238;2023-10-13T04:10:10;100427.27;;;10.03;61.97
56582;BME280;42463;52.214;21.238;2023-10-13T04:12:44;100423.35;;;10.06;62.12
56582;BME280;42463;52.214;21.238;2023-10-13T04:15:06;100420.30;;;10.10;62.04
56582;BME280;42463;52.214;21.238;2023-10-13T04:17:23;100423.91;;;10.11;61.97
56582;BME280;42463;52.214;21.238;2023-10-13T04:19:30;100423.92;;;10.09;61.91
56582;BME280;42463;52.214;21.238;2023-10-13T04:21:57;100426.27;;;10.15;61.81
56582;BME280;42463;52.214;21.238;2023-10-13T04:24:07;100428.95;;;10.16;61.76
56582;BME280;42463;52.214;21.238;2023-10-13T04:26:27;100428.79;;;10.16;61.76
56582;BME280;42463;52.214;21.238;2023-10-13T04:28:42;100422.82;;;10.16;61.85
56582;BME280;42463;52.214;21.238;2023-10-13T04:30:57;100420.76;;;10.15;61.79
56582;BME280;42463;52.214;21.238;2023-10-13T04:33:05;100422.83;;;10.17;61.58
56582;BME280;42463;52.214;21.238;2023-10-13T04:35:40;100421.50;;;10.11;61.36
56582;BME280;42463;52.214;21.238;2023-10-13T04:37:52;100419.24;;;10.07;61.59
56582;BME280;42463;52.214;21.238;2023-10-13T04:40:04;100422.70;;;10.06;61.49
56582;BME280;42463;52.214;21.238;2023-10-13T04:42:14;100425.39;;;10.05;61.34
56582;BME280;42463;52.214;21.238;2023-10-13T04:44:40;100422.34;;;10.04;61.49
56582;BME280;42463;52.214;21.238;2023-10-13T04:46:58;100420.00;;;10.04;61.50
56582;BME280;42463;52.214;21.238;2023-10-13T04:49:13;100423.01;;;10.05;61.60
56582;BME280;42463;52.214;21.238;2023-10-13T04:51:32;100429.36;;;10.06;61.62
56582;BME280;42463;52.214;21.238;2023-10-13T04:53:55;100438.57;;;10.06;61.64
56582;BME280;42463;52.214;21.238;2023-10-13T04:56:09;100440.61;;;10.09;61.66
56582;BME280;42463;52.214;21.238;2023-10-13T04:58:29;100440.96;;;10.10;61.73
56582;BME280;42463;52.214;21.238;2023-10-13T05:01:07;100437.36;;;10.13;61.83
56582;BME280;42463;52.214;21.238;2023-10-13T05:03:42;100434.18;;;10.14;61.83
56582;BME280;42463;52.214;21.238;2023-10-13T05:06:26;100439.27;;;10.17;61.78
56582;BME280;42463;52.214;21.238;2023-10-13T05:08:46;100440.20;;;10.18;61.78
56582;BME280;42463;52.214;21.238;2023-10-13T05:11:17;100434.26;;;10.19;61.80
56582;BME280;42463;52.214;21.238;2023-10-13T05:13:37;100437.66;;;10.20;61.99
56582;BME280;42463;52.214;21.238;2023-10-13T05:15:56;100435.49;;;10.20;61.89
56582;BME280;42463;52.214;21.238;2023-10-13T05:18:25;100428.85;;;10.20;62.29
56582;BME280;42463;52.214;21.238;2023-10-13T05:20:44;100429.13;;;10.20;62.39
56582;BME280;42463;52.214;21.238;2023-10-13T05:23:06;100432.40;;;10.21;62.85
56582;BME280;42463;52.214;21.238;2023-10-13T05:25:25;100433.80;;;10.24;63.20
56582;BME280;42463;52.214;21.238;2023-10-13T05:27:45;100435.36;;;10.27;63.46
56582;BME280;42463;52.214;21.238;2023-10-13T05:30:06;100441.02;;;10.29;63.76
56582;BME280;42463;52.214;21.238;2023-10-13T05:32:26;100451.55;;;10.30;63.87
56582;BME280;42463;52.214;21.238;2023-10-13T05:34:46;100450.27;;;10.31;64.02
56582;BME280;42463;52.214;21.238;2023-10-13T05:37:06;100452.79;;;10.33;64.30
56582;BME280;42463;52.214;21.238;2023-10-13T05:39:26;100461.05;;;10.34;64.36
56582;BME280;42463;52.214;21.238;2023-10-13T05:41:58;100465.38;;;10.38;64.33
56582;BME280;42463;52.214;21.238;2023-10-13T05:44:17;100465.66;;;10.41;64.39
56582;BME280;42463;52.214;21.238;2023-10-13T05:46:40;100473.73;;;10.44;64.70
56582;BME280;42463;52.214;21.238;2023-10-13T05:49:06;100479.70;;;10.49;64.64
56582;BME280;42463;52.214;21.238;2023-10-13T05:51:32;100481.89;;;10.54;64.52
56582;BME280;42463;52.214;21.238;2023-10-13T05:53:48;100485.63;;;10.59;64.49
56582;BME280;42463;52.214;21.238;2023-10-13T05:56:07;100486.71;;;10.63;64.21
56582;BME280;42463;52.214;21.238;2023-10-13T05:58:27;100487.90;;;10.67;64.09
56582;BME280;42463;52.214;21.238;2023-10-13T06:00:47;100492.86;;;10.69;63.89
56582;BME280;42463;52.214;21.238;2023-10-13T06:03:06;100491.17;;;10.69;63.85
56582;BME280;42463;52.214;21.238;2023-10-13T06:05:26;100495.11;;;10.66;63.79
56582;BME280;42463;52.214;21.238;2023-10-13T06:07:46;100495.63;;;10.64;64.14
56582;BME280;42463;52.214;21.238;2023-10-13T06:10:07;100503.55;;;10.64;64.07
56582;BME280;42463;52.214;21.238;2023-10-13T06:12:26;100514.61;;;10.64;64.14
56582;BME280;42463;52.214;21.238;2023-10-13T06:14:48;100517.88;;;10.65;64.27
56582;BME280;42463;52.214;21.238;2023-10-13T06:17:22;100528.14;;;10.65;64.43
56582;BME280;42463;52.214;21.238;2023-10-13T06:19:59;100530.04;;;10.70;64.58
56582;BME280;42463;52.214;21.238;2023-10-13T06:22:18;100525.31;;;10.74;64.71
56582;BME280;42463;52.214;21.238;2023-10-13T06:24:38;100517.50;;;10.74;64.90
56582;BME280;42463;52.214;21.238;2023-10-13T06:26:58;100510.13;;;10.73;65.18
56582;BME280;42463;52.214;21.238;2023-10-13T06:29:17;100515.81;;;10.73;65.46
56582;BME280;42463;52.214;21.238;2023-10-13T06:31:24;100518.63;;;10.73;65.70
56582;BME280;42463;52.214;21.238;2023-10-13T06:33:31;100519.38;;;10.77;65.81
56582;BME280;42463;52.214;21.238;2023-10-13T06:35:38;100524.55;;;10.82;66.07
56582;BME280;42463;52.214;21.238;2023-10-13T06:37:48;100527.48;;;10.91;66.26
56582;BME280;42463;52.214;21.238;2023-10-13T06:39:55;100526.14;;;10.98;66.39
56582;BME280;42463;52.214;21.238;2023-10-13T06:42:01;100529.63;;;11.04;66.56
56582;BME280;42463;52.214;21.238;2023-10-13T06:44:08;100530.39;;;11.09;66.71
56582;BME280;42463;52.214;21.238;2023-10-13T06:46:20;100526.98;;;11.15;66.75
56582;BME280;42463;52.214;21.238;2023-10-13T06:48:28;100521.48;;;11.19;66.71
56582;BME280;42463;52.214;21.238;2023-10-13T06:50:38;100517.23;;;11.23;66.99
56582;BME280;42463;52.214;21.238;2023-10-13T06:52:47;100511.07;;;11.25;67.08
56582;BME280;42463;52.214;21.238;2023-10-13T06:54:53;100516.24;;;11.32;67.08
56582;BME280;42463;52.214;21.238;2023-10-13T06:56:59;100511.29;;;11.37;67.17
56582;BME280;42463;52.214;21.238;2023-10-13T06:59:08;100513.66;;;11.40;67.19
56582;BME280;42463;52.214;21.238;2023-10-13T07:01:14;100517.47;;;11.45;67.47
56582;BME280;42463;52.214;21.238;2023-10-13T07:03:26;100511.05;;;11.50;67.42
56582;BME280;42463;52.214;21.238;2023-10-13T07:05:35;100519.27;;;11.57;67.56
56582;BME280;42463;52.214;21.238;2023-10-13T07:07:42;100516.83;;;11.63;67.62
56582;BME280;42463;52.214;21.238;2023-10-13T07:09:48;100514.65;;;11.69;67.64
56582;BME280;42463;52.214;21.238;2023-10-13T07:12:01;100512.48;;;11.76;67.78
56582;BME280;42463;52.214;21.238;2023-10-13T07:14:08;100515.16;;;11.83;67.94
56582;BME280;42463;52.214;21.238;2023-10-13T07:16:15;100518.40;;;11.86;68.05
56582;BME280;42463;52.214;21.238;2023-10-13T07:18:23;100516.20;;;11.91;68.17
56582;BME280;42463;52.214;21.238;2023-10-13T07:20:28;100520.27;;;11.95;68.42
56582;BME280;42463;52.214;21.238;2023-10-13T07:22:39;100524.87;;;12.01;68.50
56582;BME280;42463;52.214;21.238;2023-10-13T07:24:45;100518.83;;;12.07;68.70
56582;BME280;42463;52.214;21.238;2023-10-13T07:26:55;100518.00;;;12.13;68.87
56582;BME280;42463;52.214;21.238;2023-10-13T07:29:12;100513.08;;;12.19;68.93
56582;BME280;42463;52.214;21.238;2023-10-13T07:31:19;100504.99;;;12.23;69.23
56582;BME280;42463;52.214;21.238;2023-10-13T07:33:25;100506.49;;;12.27;69.32
56582;BME280;42463;52.214;21.238;2023-10-13T07:35:31;100504.57;;;12.32;69.41
56582;BME280;42463;52.214;21.238;2023-10-13T07:37:40;100509.60;;;12.37;69.71
56582;BME280;42463;52.214;21.238;2023-10-13T07:39:46;100505.16;;;12.42;69.74
56582;BME280;42463;52.214;21.238;2023-10-13T07:41:55;100509.07;;;12.48;69.99
56582;BME280;42463;52.214;21.238;2023-10-13T07:44:08;100511.12;;;12.53;70.06
56582;BME280;42463;52.214;21.238;2023-10-13T07:46:17;100512.29;;;12.58;70.28
56582;BME280;42463;52.214;21.238;2023-10-13T07:48:28;100506.00;;;12.62;70.39
56582;BME280;42463;52.214;21.238;2023-10-13T07:50:34;100505.96;;;12.68;70.46
56582;BME280;42463;52.214;21.238;2023-10-13T07:52:41;100507.56;;;12.72;70.52
56582;BME280;42463;52.214;21.238;2023-10-13T07:55:04;100504.64;;;12.77;70.63
56582;BME280;42463;52.214;21.238;2023-10-13T07:57:18;100501.17;;;12.82;70.67
56582;BME280;42463;52.214;21.238;2023-10-13T07:59:34;100498.80;;;12.86;70.86
56582;BME280;42463;52.214;21.238;2023-10-13T08:01:41;100490.68;;;12.90;70.93
56582;BME280;42463;52.214;21.238;2023-10-13T08:03:48;100490.42;;;12.93;71.16
56582;BME280;42463;52.214;21.238;2023-10-13T08:06:09;100489.45;;;12.98;71.30
56582;BME280;42463;52.214;21.238;2023-10-13T08:08:25;100476.11;;;12.97;71.38
56582;BME280;42463;52.214;21.238;2023-10-13T08:10:42;100493.19;;;13.11;71.51
56582;BME280;42463;52.214;21.238;2023-10-13T08:12:49;100491.53;;;13.17;71.44
56582;BME280;42463;52.214;21.238;2023-10-13T08:14:56;100492.42;;;13.22;71.29
56582;BME280;42463;52.214;21.238;2023-10-13T08:17:17;100486.06;;;13.28;71.55
56582;BME280;42463;52.214;21.238;2023-10-13T08:19:30;100485.09;;;13.33;71.35
56582;BME280;42463;52.214;21.238;2023-10-13T08:21:45;100484.48;;;13.35;71.39
56582;BME280;42463;52.214;21.238;2023-10-13T08:23:56;100483.67;;;13.35;71.35
56582;BME280;42463;52.214;21.238;2023-10-13T08:26:12;100477.67;;;13.31;71.47
56582;BME280;42463;52.214;21.238;2023-10-13T08:28:35;100471.02;;;13.29;71.65
56582;BME280;42463;52.214;21.238;2023-10-13T08:31:04;100473.15;;;13.32;71.96
56582;BME280;42463;52.214;21.238;2023-10-13T08:33:19;100472.61;;;13.37;72.04
56582;BME280;42463;52.214;21.238;2023-10-13T08:35:29;100470.43;;;13.40;71.81
56582;BME280;42463;52.214;21.238;2023-10-13T08:37:42;100470.22;;;13.45;71.89
56582;BME280;42463;52.214;21.238;2023-10-13T08:40:07;100473.17;;;13.48;71.77
56582;BME280;42463;52.214;21.238;2023-10-13T08:42:30;100475.12;;;13.50;71.89
56582;BME280;42463;52.214;21.238;2023-10-13T08:44:58;100472.98;;;13.53;71.94
56582;BME280;42463;52.214;21.238;2023-10-13T08:47:09;100469.73;;;13.52;71.81
56582;BME280;42463;52.214;21.238;2023-10-13T08:49:23;100469.35;;;13.47;71.70
56582;BME280;42463;52.214;21.238;2023-10-13T08:51:36;100469.89;;;13.49;72.01
56582;BME280;42463;52.214;21.238;2023-10-13T08:53:49;100475.74;;;13.53;71.85
56582;BME280;42463;52.214;21.238;2023-10-13T08:56:03;100474.12;;;13.56;71.58
56582;BME280;42463;52.214;21.238;2023-10-13T08:58:19;100472.48;;;13.60;71.65
56582;BME280;42463;52.214;21.238;2023-10-13T09:00:29;100470.46;;;13.62;71.53
56582;BME280;42463;52.214;21.238;2023-10-13T09:03:06;100471.94;;;13.64;71.35
56582;BME280;42463;52.214;21.238;2023-10-13T09:05:26;100473.03;;;13.66;71.22
56582;BME280;42463;52.214;21.238;2023-10-13T09:07:47;100478.59;;;13.69;71.37
56582;BME280;42463;52.214;21.238;2023-10-13T09:09:53;100478.97;;;13.73;71.36
56582;BME280;42463;52.214;21.238;2023-10-13T09:12:17;100473.40;;;13.74;71.00
56582;BME280;42463;52.214;21.238;2023-10-13T09:14:24;100473.73;;;13.75;71.17
56582;BME280;42463;52.214;21.238;2023-10-13T09:16:40;100467.52;;;13.76;70.76
56582;BME280;42463;52.214;21.238;2023-10-13T09:19:12;100464.62;;;13.81;71.01
56582;BME280;42463;52.214;21.238;2023-10-13T09:21:19;100460.79;;;13.90;70.99
56582;BME280;42463;52.214;21.238;2023-10-13T09:23:54;100453.56;;;14.01;70.99
56582;BME280;42463;52.214;21.238;2023-10-13T09:26:19;100452.49;;;14.16;71.03
56582;BME280;42463;52.214;21.238;2023-10-13T09:28:30;100458.67;;;14.27;70.87
56582;BME280;42463;52.214;21.238;2023-10-13T09:30:36;100456.73;;;14.36;70.73
56582;BME280;42463;52.214;21.238;2023-10-13T09:32:48;100456.06;;;14.41;70.30
56582;BME280;42463;52.214;21.238;2023-10-13T09:35:08;100456.17;;;14.41;69.99
56582;BME280;42463;52.214;21.238;2023-10-13T09:37:18;100455.80;;;14.41;70.25
56582;BME280;42463;52.214;21.238;2023-10-13T09:39:27;100448.11;;;14.44;70.21
56582;BME280;42463;52.214;21.238;2023-10-13T09:41:40;100444.46;;;14.44;70.01
56582;BME280;42463;52.214;21.238;2023-10-13T09:43:46;100439.42;;;14.45;70.01
56582;BME280;42463;52.214;21.238;2023-10-13T09:46:00;100441.48;;;14.52;70.32
56582;BME280;42463;52.214;21.238;2023-10-13T09:48:11;100441.52;;;14.59;70.54
56582;BME280;42463;52.214;21.238;2023-10-13T09:50:28;100439.94;;;14.72;70.17
56582;BME280;42463;52.214;21.238;2023-10-13T09:52:37;100438.11;;;14.85;69.84
56582;BME280;42463;52.214;21.238;2023-10-13T09:54:46;100437.33;;;14.97;69.76
56582;BME280;42463;52.214;21.238;2023-10-13T09:57:10;100434.35;;;15.09;69.58
56582;BME280;42463;52.214;21.238;2023-10-13T09:59:22;100430.86;;;15.16;68.54
56582;BME280;42463;52.214;21.238;2023-10-13T10:01:30;100427.42;;;15.23;68.80
56582;BME280;42463;52.214;21.238;2023-10-13T10:03:47;100424.17;;;15.26;68.28
56582;BME280;42463;52.214;21.238;2023-10-13T10:06:00;100419.23;;;15.29;68.21
56582;BME280;42463;52.214;21.238;2023-10-13T10:08:26;100414.37;;;15.35;68.35
56582;BME280;42463;52.214;21.238;2023-10-13T10:10:47;100411.11;;;15.40;68.07
56582;BME280;42463;52.214;21.238;2023-10-13T10:13:05;100396.95;;;15.45;68.05
56582;BME280;42463;52.214;21.238;2023-10-13T10:15:28;100400.23;;;15.51;68.21
56582;BME280;42463;52.214;21.238;2023-10-13T10:17:42;100403.92;;;15.55;67.89
56582;BME280;42463;52.214;21.238;2023-10-13T10:19:51;100404.84;;;15.60;67.96
56582;BME280;42463;52.214;21.238;2023-10-13T10:22:05;100399.68;;;15.64;67.75
56582;BME280;42463;52.214;21.238;2023-10-13T10:24:23;100392.96;;;15.64;67.46
56582;BME280;42463;52.214;21.238;2023-10-13T10:26:34;100389.52;;;15.64;67.67
56582;BME280;42463;52.214;21.238;2023-10-13T10:28:41;100389.59;;;15.68;67.77
56582;BME280;42463;52.214;21.238;2023-10-13T10:30:48;100388.33;;;15.73;67.78
56582;BME280;42463;52.214;21.238;2023-10-13T10:32:57;100388.75;;;15.80;67.52
56582;BME280;42463;52.214;21.238;2023-10-13T10:35:07;100384.59;;;15.84;67.32
56582;BME280;42463;52.214;21.238;2023-10-13T10:37:13;100389.13;;;15.90;67.40
56582;BME280;42463;52.214;21.238;2023-10-13T10:39:21;100386.28;;;15.95;67.31
56582;BME280;42463;52.214;21.238;2023-10-13T10:41:38;100381.61;;;16.02;67.36
56582;BME280;42463;52.214;21.238;2023-10-13T10:43:50;100380.67;;;16.08;67.15
56582;BME280;42463;52.214;21.238;2023-10-13T10:45:56;100374.74;;;16.09;66.86
56582;BME280;42463;52.214;21.238;2023-10-13T10:48:06;100370.07;;;16.10;66.87
56582;BME280;42463;52.214;21.238;2023-10-13T10:50:27;100365.88;;;16.17;67.23
56582;BME280;42463;52.214;21.238;2023-10-13T10:52:39;100366.86;;;16.22;67.03
56582;BME280;42463;52.214;21.238;2023-10-13T10:54:47;100361.43;;;16.27;67.29
56582;BME280;42463;52.214;21.238;2023-10-13T10:57:03;100356.27;;;16.32;67.29
56582;BME280;42463;52.214;21.238;2023-10-13T10:59:22;100354.14;;;16.33;66.87
56582;BME280;42463;52.214;21.238;2023-10-13T11:01:30;100347.06;;;16.33;66.99
56582;BME280;42463;52.214;21.238;2023-10-13T11:03:42;100345.21;;;16.36;67.01
56582;BME280;42463;52.214;21.238;2023-10-13T11:06:00;100338.41;;;16.41;67.20
56582;BME280;42463;52.214;21.238;2023-10-13T11:08:08;100334.94;;;16.47;67.26
56582;BME280;42463;52.214;21.238;2023-10-13T11:10:29;100338.16;;;16.51;67.00
56582;BME280;42463;52.214;21.238;2023-10-13T11:12:36;100338.52;;;16.53;66.82
56582;BME280;42463;52.214;21.238;2023-10-13T11:14:45;100331.83;;;16.53;66.80
56582;BME280;42463;52.214;21.238;2023-10-13T11:16:54;100335.05;;;16.57;67.08
56582;BME280;42463;52.214;21.238;2023-10-13T11:19:05;100331.70;;;16.64;67.03
56582;BME280;42463;52.214;21.238;2023-10-13T11:21:16;100329.89;;;16.70;67.19
56582;BME280;42463;52.214;21.238;2023-10-13T11:23:22;100329.25;;;16.79;67.16
56582;BME280;42463;52.214;21.238;2023-10-13T11:25:31;100325.34;;;16.88;66.76
56582;BME280;42463;52.214;21.238;2023-10-13T11:27:41;100317.29;;;17.01;66.89